sensor_id;sensor_type;location;lat;lon;timestamp;temperature;humidity
14170;DHT22;63889;50.596;8.690;2023-08-12T00:01:36;20.90;99.90
14170;DHT22;63889;50.596;8.690;2023-08-12T00:04:02;20.80;99.90
14170;DHT22;63889;50.596;8.690;2023-08-12T00:06:27;20.70;99.90
14170;DHT22;63889;50.596;8.690;2023-08-12T00:08:54;20.70;99.90
14170;DHT22;63889;50.596;8.690;2023-08-12T00:11:19;20.70;99.90
14170;DHT22;63889;50.596;8.690;2023-08-12T00:13:45;20.70;99.90
14170;DHT22;63889;50.596;8.690;2023-08-12T00:16:10;20.70;99.90
14170;DHT22;63889;50.596;8.690;2023-08-12T00:18:36;20.70;99.90
14170;DHT22;63889;50.596;8.690;2023-08-12T00:21:07;20.70;99.90
14170;DHT22;63889;50.596;8.690;2023-08-12T00:23:37;20.70;99.90
14170;DHT22;63889;50.596;8.690;2023-08-12T00:26:03;20.70;99.90
14170;DHT22;63889;50.596;8.690;2023-08-12T00:28:29;20.60;99.90
14170;DHT22;63889;50.596;8.690;2023-08-12T00:30:54;20.60;99.90
14170;DHT22;63889;50.596;8.690;2023-08-12T00:33:20;20.50;99.90
14170;DHT22;63889;50.596;8.690;2023-08-12T00:35:45;20.40;99.90
14170;DHT22;63889;50.596;8.690;2023-08-12T00:38:11;20.50;99.90
14170;DHT22;63889;50.596;8.690;2023-08-12T00:40:36;20.40;99.90
14170;DHT22;63889;50.596;8.690;2023-08-12T00:43:02;20.40;99.90
14170;DHT22;63889;50.596;8.690;2023-08-12T00:45:29;20.30;99.90
14170;DHT22;63889;50.596;8.690;2023-08-12T00:47:55;20.30;99.90
14170;DHT22;63889;50.596;8.690;2023-08-12T00:50:20;20.30;99.90
14170;DHT22;63889;50.596;8.690;2023-08-12T00:52:47;20.40;99.90
14170;DHT22;63889;50.596;8.690;2023-08-12T00:55:12;20.40;99.90
14170;DHT22;63889;50.596;8.690;2023-08-12T00:57:38;20.40;99.90
14170;DHT22;63889;50.596;8.690;2023-08-12T01:00:04;20.40;99.90
14170;DHT22;63889;50.596;8.690;2023-08-12T01:02:30;20.50;99.90
14170;DHT22;63889;50.596;8.690;2023-08-12T01:04:56;20.50;99.90
14170;DHT22;63889;50.596;8.690;2023-08-12T01:07:21;20.50;99.90
14170;DHT22;63889;50.596;8.690;2023-08-12T01:09:47;20.50;99.90
14170;DHT22;63889;50.596;8.690;2023-08-12T01:12:17;20.50;99.90
14170;DHT22;63889;50.596;8.690;2023-08-12T01:15:01;20.60;99.90
14170;DHT22;63889;50.596;8.690;2023-08-12T01:17:28;20.60;99.90
14170;DHT22;63889;50.596;8.690;2023-08-12T01:19:55;20.60;99.90
14170;DHT22;63889;50.596;8.690;2023-08-12T01:22:23;20.60;99.90
14170;DHT22;63889;50.596;8.690;2023-08-12T01:24:51;20.60;99.90
14170;DHT22;63889;50.596;8.690;2023-08-12T01:27:16;20.60;99.90
14170;DHT22;63889;50.596;8.690;2023-08-12T01:29:46;20.60;99.90
14170;DHT22;63889;50.596;8.690;2023-08-12T01:32:32;20.60;99.90
14170;DHT22;63889;50.596;8.690;2023-08-12T01:35:26;20.60;99.90
14170;DHT22;63889;50.596;8.690;2023-08-12T01:37:57;20.60;99.90
14170;DHT22;63889;50.596;8.690;2023-08-12T01:40:24;20.60;99.90
14170;DHT22;63889;50.596;8.690;2023-08-12T01:42:50;20.70;99.90
14170;DHT22;63889;50.596;8.690;2023-08-12T01:45:18;20.80;99.90
14170;DHT22;63889;50.596;8.690;2023-08-12T01:47:44;20.80;99.90
14170;DHT22;63889;50.596;8.690;2023-08-12T01:50:10;20.80;99.90
14170;DHT22;63889;50.596;8.690;2023-08-12T01:52:36;20.80;99.90
14170;DHT22;63889;50.596;8.690;2023-08-12T01:55:01;20.80;99.90
14170;DHT22;63889;50.596;8.690;2023-08-12T01:57:27;20.80;99.90
14170;DHT22;63889;50.596;8.690;2023-08-12T01:59:52;20.70;99.90
14170;DHT22;63889;50.596;8.690;2023-08-12T02:02:18;20.80;99.90
14170;DHT22;63889;50.596;8.690;2023-08-12T02:04:43;20.80;99.90
14170;DHT22;63889;50.596;8.690;2023-08-12T02:07:09;20.80;99.90
14170;DHT22;63889;50.596;8.690;2023-08-12T02:09:35;20.90;99.90
14170;DHT22;63889;50.596;8.690;2023-08-12T02:12:01;21.00;99.90
14170;DHT22;63889;50.596;8.690;2023-08-12T02:14:26;21.00;99.90
14170;DHT22;63889;50.596;8.690;2023-08-12T02:16:52;20.80;99.90
14170;DHT22;63889;50.596;8.690;2023-08-12T02:19:17;20.80;99.90
14170;DHT22;63889;50.596;8.690;2023-08-12T02:21:44;20.70;99.90
14170;DHT22;63889;50.596;8.690;2023-08-12T02:24:09;20.70;99.90
14170;DHT22;63889;50.596;8.690;2023-08-12T02:26:35;20.60;99.90
14170;DHT22;63889;50.596;8.690;2023-08-12T02:29:00;20.60;99.90
14170;DHT22;63889;50.596;8.690;2023-08-12T02:31:26;20.40;99.90
14170;DHT22;63889;50.596;8.690;2023-08-12T02:33:52;20.40;99.90
14170;DHT22;63889;50.596;8.690;2023-08-12T02:36:17;20.50;99.90
14170;DHT22;63889;50.596;8.690;2023-08-12T02:38:43;20.50;99.90
14170;DHT22;63889;50.596;8.690;2023-08-12T02:41:08;20.60;99.90
14170;DHT22;63889;50.596;8.690;2023-08-12T02:43:34;20.70;99.90
14170;DHT22;63889;50.596;8.690;2023-08-12T02:46:00;20.90;99.90
14170;DHT22;63889;50.596;8.690;2023-08-12T02:48:25;20.90;99.90
14170;DHT22;63889;50.596;8.690;2023-08-12T02:50:51;21.00;99.90
14170;DHT22;63889;50.596;8.690;2023-08-12T02:53:17;20.90;99.90
14170;DHT22;63889;50.596;8.690;2023-08-12T02:55:44;20.80;99.90
14170;DHT22;63889;50.596;8.690;2023-08-12T02:58:10;20.80;99.90
14170;DHT22;63889;50.596;8.690;2023-08-12T03:00:35;20.80;99.90
14170;DHT22;63889;50.596;8.690;2023-08-12T03:03:01;20.80;99.90
14170;DHT22;63889;50.596;8.690;2023-08-12T03:05:26;20.90;99.90
14170;DHT22;63889;50.596;8.690;2023-08-12T03:07:52;21.00;99.90
14170;DHT22;63889;50.596;8.690;2023-08-12T03:10:18;21.00;99.90
14170;DHT22;63889;50.596;8.690;2023-08-12T03:12:43;21.20;99.90
14170;DHT22;63889;50.596;8.690;2023-08-12T03:15:10;21.20;99.90
14170;DHT22;63889;50.596;8.690;2023-08-12T03:17:36;21.10;99.90
14170;DHT22;63889;50.596;8.690;2023-08-12T03:20:05;21.00;99.90
14170;DHT22;63889;50.596;8.690;2023-08-12T03:22:31;20.90;99.90
14170;DHT22;63889;50.596;8.690;2023-08-12T03:24:56;20.90;99.90
14170;DHT22;63889;50.596;8.690;2023-08-12T03:27:22;20.90;99.90
14170;DHT22;63889;50.596;8.690;2023-08-12T03:29:47;20.90;99.90
14170;DHT22;63889;50.596;8.690;2023-08-12T03:32:13;20.90;99.90
14170;DHT22;63889;50.596;8.690;2023-08-12T03:34:38;20.80;99.90
14170;DHT22;63889;50.596;8.690;2023-08-12T03:37:04;20.70;99.90
14170;DHT22;63889;50.596;8.690;2023-08-12T03:39:30;20.60;99.90
14170;DHT22;63889;50.596;8.690;2023-08-12T03:41:55;20.60;99.90
14170;DHT22;63889;50.596;8.690;2023-08-12T03:44:21;20.70;99.90
14170;DHT22;63889;50.596;8.690;2023-08-12T03:46:50;20.50;99.90
14170;DHT22;63889;50.596;8.690;2023-08-12T03:49:15;20.50;99.90
14170;DHT22;63889;50.596;8.690;2023-08-12T03:51:41;20.50;99.90
14170;DHT22;63889;50.596;8.690;2023-08-12T03:54:06;20.50;99.90
14170;DHT22;63889;50.596;8.690;2023-08-12T03:56:32;20.50;99.90
14170;DHT22;63889;50.596;8.690;2023-08-12T03:58:57;20.40;99.90
14170;DHT22;63889;50.596;8.690;2023-08-12T04:01:23;20.20;99.90
14170;DHT22;63889;50.596;8.690;2023-08-12T04:03:49;20.20;99.90
14170;DHT22;63889;50.596;8.690;2023-08-12T04:06:14;20.30;99.90
14170;DHT22;63889;50.596;8.690;2023-08-12T04:08:40;20.30;99.90
14170;DHT22;63889;50.596;8.690;2023-08-12T04:11:05;20.20;99.90
14170;DHT22;63889;50.596;8.690;2023-08-12T04:13:31;20.20;99.90
14170;DHT22;63889;50.596;8.690;2023-08-12T04:15:57;20.10;99.90
14170;DHT22;63889;50.596;8.690;2023-08-12T04:18:22;20.10;99.90
14170;DHT22;63889;50.596;8.690;2023-08-12T04:20:52;19.90;99.90
14170;DHT22;63889;50.596;8.690;2023-08-12T04:23:18;19.70;99.90
14170;DHT22;63889;50.596;8.690;2023-08-12T04:25:48;19.60;99.90
14170;DHT22;63889;50.596;8.690;2023-08-12T04:28:14;19.40;99.90
14170;DHT22;63889;50.596;8.690;2023-08-12T04:30:41;19.30;99.90
14170;DHT22;63889;50.596;8.690;2023-08-12T04:33:07;19.20;99.90
14170;DHT22;63889;50.596;8.690;2023-08-12T04:35:32;19.10;99.90
14170;DHT22;63889;50.596;8.690;2023-08-12T04:37:58;19.20;99.90
14170;DHT22;63889;50.596;8.690;2023-08-12T04:40:23;19.20;99.90
14170;DHT22;63889;50.596;8.690;2023-08-12T04:42:49;19.20;99.90
14170;DHT22;63889;50.596;8.690;2023-08-12T04:45:15;19.30;99.90
14170;DHT22;63889;50.596;8.690;2023-08-12T04:47:40;19.30;99.90
14170;DHT22;63889;50.596;8.690;2023-08-12T04:50:06;19.40;99.90
14170;DHT22;63889;50.596;8.690;2023-08-12T04:52:32;19.40;99.90
14170;DHT22;63889;50.596;8.690;2023-08-12T04:54:57;19.40;99.90
14170;DHT22;63889;50.596;8.690;2023-08-12T04:57:23;19.40;99.90
14170;DHT22;63889;50.596;8.690;2023-08-12T04:59:48;19.50;99.90
14170;DHT22;63889;50.596;8.690;2023-08-12T05:02:14;19.60;99.90
14170;DHT22;63889;50.596;8.690;2023-08-12T05:04:39;19.70;99.90
14170;DHT22;63889;50.596;8.690;2023-08-12T05:07:05;19.70;99.90
14170;DHT22;63889;50.596;8.690;2023-08-12T05:09:31;19.70;99.90
14170;DHT22;63889;50.596;8.690;2023-08-12T05:11:56;19.60;99.90
14170;DHT22;63889;50.596;8.690;2023-08-12T05:14:22;19.60;99.90
14170;DHT22;63889;50.596;8.690;2023-08-12T05:16:48;19.70;99.90
14170;DHT22;63889;50.596;8.690;2023-08-12T05:19:13;19.70;99.90
14170;DHT22;63889;50.596;8.690;2023-08-12T05:21:39;19.80;99.90
14170;DHT22;63889;50.596;8.690;2023-08-12T05:24:04;19.80;99.90
14170;DHT22;63889;50.596;8.690;2023-08-12T05:26:32;19.80;99.90
14170;DHT22;63889;50.596;8.690;2023-08-12T05:28:57;19.80;99.90
14170;DHT22;63889;50.596;8.690;2023-08-12T05:31:23;19.80;99.90
14170;DHT22;63889;50.596;8.690;2023-08-12T05:33:48;19.80;99.90
14170;DHT22;63889;50.596;8.690;2023-08-12T05:36:14;19.80;99.90
14170;DHT22;63889;50.596;8.690;2023-08-12T05:38:39;19.80;99.90
14170;DHT22;63889;50.596;8.690;2023-08-12T05:41:05;19.80;99.90
14170;DHT22;63889;50.596;8.690;2023-08-12T05:43:32;19.80;99.90
14170;DHT22;63889;50.596;8.690;2023-08-12T05:45:58;19.70;99.90
14170;DHT22;63889;50.596;8.690;2023-08-12T05:48:23;19.80;99.90
14170;DHT22;63889;50.596;8.690;2023-08-12T05:50:49;19.90;99.90
14170;DHT22;63889;50.596;8.690;2023-08-12T05:53:14;19.90;99.90
14170;DHT22;63889;50.596;8.690;2023-08-12T05:55:40;19.90;99.90
14170;DHT22;63889;50.596;8.690;2023-08-12T05:58:05;19.90;99.90
14170;DHT22;63889;50.596;8.690;2023-08-12T06:00:31;19.90;99.90
14170;DHT22;63889;50.596;8.690;2023-08-12T06:02:56;20.00;99.90
14170;DHT22;63889;50.596;8.690;2023-08-12T06:05:22;20.00;99.90
14170;DHT22;63889;50.596;8.690;2023-08-12T06:07:47;20.10;99.90
14170;DHT22;63889;50.596;8.690;2023-08-12T06:10:13;20.10;99.90
14170;DHT22;63889;50.596;8.690;2023-08-12T06:12:38;20.10;99.90
14170;DHT22;63889;50.596;8.690;2023-08-12T06:15:04;20.10;99.90
14170;DHT22;63889;50.596;8.690;2023-08-12T06:17:30;20.10;99.90
14170;DHT22;63889;50.596;8.690;2023-08-12T06:19:55;20.10;99.90
14170;DHT22;63889;50.596;8.690;2023-08-12T06:22:21;20.10;99.90
14170;DHT22;63889;50.596;8.690;2023-08-12T06:24:46;20.10;99.90
14170;DHT22;63889;50.596;8.690;2023-08-12T06:27:12;20.20;99.90
14170;DHT22;63889;50.596;8.690;2023-08-12T06:29:38;20.30;99.90
14170;DHT22;63889;50.596;8.690;2023-08-12T06:32:03;20.50;99.90
14170;DHT22;63889;50.596;8.690;2023-08-12T06:34:29;20.50;99.90
14170;DHT22;63889;50.596;8.690;2023-08-12T06:36:54;20.70;99.90
14170;DHT22;63889;50.596;8.690;2023-08-12T06:39:20;20.80;99.90
14170;DHT22;63889;50.596;8.690;2023-08-12T06:41:45;20.80;99.90
14170;DHT22;63889;50.596;8.690;2023-08-12T06:44:11;20.80;99.90
14170;DHT22;63889;50.596;8.690;2023-08-12T06:46:36;20.80;99.90
14170;DHT22;63889;50.596;8.690;2023-08-12T06:49:02;20.80;99.90
14170;DHT22;63889;50.596;8.690;2023-08-12T06:51:27;20.80;99.90
14170;DHT22;63889;50.596;8.690;2023-08-12T06:53:53;20.80;99.90
14170;DHT22;63889;50.596;8.690;2023-08-12T06:56:18;20.70;99.90
14170;DHT22;63889;50.596;8.690;2023-08-12T06:58:44;20.80;99.90
14170;DHT22;63889;50.596;8.690;2023-08-12T07:01:09;21.00;99.90
14170;DHT22;63889;50.596;8.690;2023-08-12T07:03:35;21.20;99.90
14170;DHT22;63889;50.596;8.690;2023-08-12T07:06:00;21.30;99.90
14170;DHT22;63889;50.596;8.690;2023-08-12T07:08:26;21.20;99.90
14170;DHT22;63889;50.596;8.690;2023-08-12T07:10:52;21.20;99.90
14170;DHT22;63889;50.596;8.690;2023-08-12T07:13:18;21.40;99.90
14170;DHT22;63889;50.596;8.690;2023-08-12T07:15:43;21.50;99.90
14170;DHT22;63889;50.596;8.690;2023-08-12T07:18:09;21.50;99.90
14170;DHT22;63889;50.596;8.690;2023-08-12T07:20:34;21.60;99.90
14170;DHT22;63889;50.596;8.690;2023-08-12T07:23:00;21.50;99.90
14170;DHT22;63889;50.596;8.690;2023-08-12T07:25:25;21.50;99.90
14170;DHT22;63889;50.596;8.690;2023-08-12T07:27:51;21.50;99.90
14170;DHT22;63889;50.596;8.690;2023-08-12T07:30:16;21.50;99.90
14170;DHT22;63889;50.596;8.690;2023-08-12T07:32:42;21.50;99.90
14170;DHT22;63889;50.596;8.690;2023-08-12T07:35:08;21.60;99.90
14170;DHT22;63889;50.596;8.690;2023-08-12T07:37:33;21.60;99.90
14170;DHT22;63889;50.596;8.690;2023-08-12T07:39:59;21.50;99.90
14170;DHT22;63889;50.596;8.690;2023-08-12T07:42:25;21.60;99.90
14170;DHT22;63889;50.596;8.690;2023-08-12T07:44:50;21.70;99.90
14170;DHT22;63889;50.596;8.690;2023-08-12T07:47:16;21.80;99.90
14170;DHT22;63889;50.596;8.690;2023-08-12T07:49:42;21.90;99.90
14170;DHT22;63889;50.596;8.690;2023-08-12T07:52:08;22.00;99.90
14170;DHT22;63889;50.596;8.690;2023-08-12T07:54:34;21.80;99.90
14170;DHT22;63889;50.596;8.690;2023-08-12T07:56:59;21.90;99.90
14170;DHT22;63889;50.596;8.690;2023-08-12T07:59:25;21.90;99.90
14170;DHT22;63889;50.596;8.690;2023-08-12T08:01:51;21.80;99.90
14170;DHT22;63889;50.596;8.690;2023-08-12T08:04:17;21.90;99.90
14170;DHT22;63889;50.596;8.690;2023-08-12T08:06:42;21.80;99.90
14170;DHT22;63889;50.596;8.690;2023-08-12T08:09:08;22.00;99.90
14170;DHT22;63889;50.596;8.690;2023-08-12T08:11:33;22.00;99.90
14170;DHT22;63889;50.596;8.690;2023-08-12T08:13:59;21.90;99.90
14170;DHT22;63889;50.596;8.690;2023-08-12T08:16:25;21.80;99.90
14170;DHT22;63889;50.596;8.690;2023-08-12T08:18:50;21.80;99.90
14170;DHT22;63889;50.596;8.690;2023-08-12T08:21:16;21.80;99.90
14170;DHT22;63889;50.596;8.690;2023-08-12T08:23:42;21.90;99.90
14170;DHT22;63889;50.596;8.690;2023-08-12T08:26:08;21.80;99.90
14170;DHT22;63889;50.596;8.690;2023-08-12T08:28:34;21.70;99.90
14170;DHT22;63889;50.596;8.690;2023-08-12T08:31:00;21.50;99.90
14170;DHT22;63889;50.596;8.690;2023-08-12T08:33:26;21.60;99.90
14170;DHT22;63889;50.596;8.690;2023-08-12T08:35:52;21.40;99.90
14170;DHT22;63889;50.596;8.690;2023-08-12T08:38:17;21.30;99.90
14170;DHT22;63889;50.596;8.690;2023-08-12T08:40:43;21.20;99.90
14170;DHT22;63889;50.596;8.690;2023-08-12T08:43:09;21.20;99.90
14170;DHT22;63889;50.596;8.690;2023-08-12T08:45:36;21.10;99.90
14170;DHT22;63889;50.596;8.690;2023-08-12T08:48:02;21.10;99.90
14170;DHT22;63889;50.596;8.690;2023-08-12T08:50:30;21.10;99.90
14170;DHT22;63889;50.596;8.690;2023-08-12T08:52:56;21.10;99.90
14170;DHT22;63889;50.596;8.690;2023-08-12T08:55:22;21.20;99.90
14170;DHT22;63889;50.596;8.690;2023-08-12T08:57:48;21.20;99.90
14170;DHT22;63889;50.596;8.690;2023-08-12T09:00:18;21.20;99.90
14170;DHT22;63889;50.596;8.690;2023-08-12T09:02:46;21.30;99.90
14170;DHT22;63889;50.596;8.690;2023-08-12T09:05:14;21.40;99.90
14170;DHT22;63889;50.596;8.690;2023-08-12T09:07:41;21.40;99.90
14170;DHT22;63889;50.596;8.690;2023-08-12T09:10:08;21.50;99.90
14170;DHT22;63889;50.596;8.690;2023-08-12T09:12:34;21.50;99.90
14170;DHT22;63889;50.596;8.690;2023-08-12T09:14:59;21.70;99.90
14170;DHT22;63889;50.596;8.690;2023-08-12T09:17:25;22.00;99.90
14170;DHT22;63889;50.596;8.690;2023-08-12T09:19:51;22.20;99.90
14170;DHT22;63889;50.596;8.690;2023-08-12T09:22:18;22.40;99.90
14170;DHT22;63889;50.596;8.690;2023-08-12T09:24:43;22.50;99.90
14170;DHT22;63889;50.596;8.690;2023-08-12T09:27:09;22.60;99.90
14170;DHT22;63889;50.596;8.690;2023-08-12T09:29:36;22.40;99.90
14170;DHT22;63889;50.596;8.690;2023-08-12T09:32:12;22.40;99.90
14170;DHT22;63889;50.596;8.690;2023-08-12T09:34:50;22.40;99.90
14170;DHT22;63889;50.596;8.690;2023-08-12T09:37:17;22.30;99.90
14170;DHT22;63889;50.596;8.690;2023-08-12T09:39:43;22.20;99.90
14170;DHT22;63889;50.596;8.690;2023-08-12T09:42:10;22.40;99.90
14170;DHT22;63889;50.596;8.690;2023-08-12T09:44:37;22.50;99.90
14170;DHT22;63889;50.596;8.690;2023-08-12T09:47:02;22.50;99.90
14170;DHT22;63889;50.596;8.690;2023-08-12T09:49:28;22.60;99.90
14170;DHT22;63889;50.596;8.690;2023-08-12T09:51:55;22.70;99.90
14170;DHT22;63889;50.596;8.690;2023-08-12T09:54:21;22.70;99.90
14170;DHT22;63889;50.596;8.690;2023-08-12T09:56:48;22.80;99.90
14170;DHT22;63889;50.596;8.690;2023-08-12T09:59:19;22.90;99.90
14170;DHT22;63889;50.596;8.690;2023-08-12T10:01:51;23.00;99.90
14170;DHT22;63889;50.596;8.690;2023-08-12T10:04:18;23.20;99.90
14170;DHT22;63889;50.596;8.690;2023-08-12T10:06:47;23.30;99.90
14170;DHT22;63889;50.596;8.690;2023-08-12T10:09:15;23.50;99.90
14170;DHT22;63889;50.596;8.690;2023-08-12T10:11:42;23.60;99.90
14170;DHT22;63889;50.596;8.690;2023-08-12T10:14:10;23.50;99.90
14170;DHT22;63889;50.596;8.690;2023-08-12T10:16:36;23.50;99.90
14170;DHT22;63889;50.596;8.690;2023-08-12T10:19:04;23.60;99.90
14170;DHT22;63889;50.596;8.690;2023-08-12T10:21:29;23.80;99.90
14170;DHT22;63889;50.596;8.690;2023-08-12T10:23:58;23.60;99.90
14170;DHT22;63889;50.596;8.690;2023-08-12T10:26:24;23.70;99.90
14170;DHT22;63889;50.596;8.690;2023-08-12T10:28:51;23.70;99.90
14170;DHT22;63889;50.596;8.690;2023-08-12T10:31:17;23.50;99.90
14170;DHT22;63889;50.596;8.690;2023-08-12T10:33:43;23.60;99.90
14170;DHT22;63889;50.596;8.690;2023-08-12T10:36:10;23.60;99.90
14170;DHT22;63889;50.596;8.690;2023-08-12T10:38:35;23.70;99.90
14170;DHT22;63889;50.596;8.690;2023-08-12T10:41:17;23.80;99.90
14170;DHT22;63889;50.596;8.690;2023-08-12T10:43:51;23.90;99.90
14170;DHT22;63889;50.596;8.690;2023-08-12T10:46:29;23.80;99.90
14170;DHT22;63889;50.596;8.690;2023-08-12T10:49:06;23.80;99.90
14170;DHT22;63889;50.596;8.690;2023-08-12T10:51:45;23.80;99.90
14170;DHT22;63889;50.596;8.690;2023-08-12T10:54:24;23.70;99.90
14170;DHT22;63889;50.596;8.690;2023-08-12T10:57:09;23.70;99.90
14170;DHT22;63889;50.596;8.690;2023-08-12T11:02:19;23.50;99.90
14170;DHT22;63889;50.596;8.690;2023-08-12T11:04:57;23.60;99.90
14170;DHT22;63889;50.596;8.690;2023-08-12T11:07:34;23.60;99.90
14170;DHT22;63889;50.596;8.690;2023-08-12T11:12:34;23.50;99.90
14170;DHT22;63889;50.596;8.690;2023-08-12T11:15:00;23.50;99.90
14170;DHT22;63889;50.596;8.690;2023-08-12T11:17:41;23.40;99.90
14170;DHT22;63889;50.596;8.690;2023-08-12T11:20:09;23.40;99.90
14170;DHT22;63889;50.596;8.690;2023-08-12T11:22:37;23.30;99.90
14170;DHT22;63889;50.596;8.690;2023-08-12T11:25:09;23.20;99.90
14170;DHT22;63889;50.596;8.690;2023-08-12T11:27:42;23.00;99.90
14170;DHT22;63889;50.596;8.690;2023-08-12T11:30:13;23.00;99.90
14170;DHT22;63889;50.596;8.690;2023-08-12T11:32:41;22.90;99.90
14170;DHT22;63889;50.596;8.690;2023-08-12T11:35:08;22.80;99.90
14170;DHT22;63889;50.596;8.690;2023-08-12T11:37:38;22.70;99.90
14170;DHT22;63889;50.596;8.690;2023-08-12T11:40:05;22.70;99.90
14170;DHT22;63889;50.596;8.690;2023-08-12T11:42:31;22.80;99.90
14170;DHT22;63889;50.596;8.690;2023-08-12T11:44:57;23.00;99.90
14170;DHT22;63889;50.596;8.690;2023-08-12T11:47:22;23.30;99.90
14170;DHT22;63889;50.596;8.690;2023-08-12T11:49:48;23.50;99.90
14170;DHT22;63889;50.596;8.690;2023-08-12T11:52:14;24.30;99.90
14170;DHT22;63889;50.596;8.690;2023-08-12T11:54:40;25.50;99.90
14170;DHT22;63889;50.596;8.690;2023-08-12T11:57:06;26.00;99.90
14170;DHT22;63889;50.596;8.690;2023-08-12T11:59:31;26.80;99.90
14170;DHT22;63889;50.596;8.690;2023-08-12T12:01:57;28.00;99.90
14170;DHT22;63889;50.596;8.690;2023-08-12T12:04:22;29.50;99.90
14170;DHT22;63889;50.596;8.690;2023-08-12T12:06:49;30.00;99.90
14170;DHT22;63889;50.596;8.690;2023-08-12T12:09:15;29.60;99.90
14170;DHT22;63889;50.596;8.690;2023-08-12T12:11:44;29.00;99.90
14170;DHT22;63889;50.596;8.690;2023-08-12T12:14:10;28.30;99.90
14170;DHT22;63889;50.596;8.690;2023-08-12T12:19:24;27.30;99.90
14170;DHT22;63889;50.596;8.690;2023-08-12T12:21:53;26.80;99.90
14170;DHT22;63889;50.596;8.690;2023-08-12T12:24:19;26.40;99.90
14170;DHT22;63889;50.596;8.690;2023-08-12T12:26:46;26.10;99.90
14170;DHT22;63889;50.596;8.690;2023-08-12T12:29:12;26.00;99.90
14170;DHT22;63889;50.596;8.690;2023-08-12T12:31:39;26.10;99.90
14170;DHT22;63889;50.596;8.690;2023-08-12T12:34:05;26.20;99.90
14170;DHT22;63889;50.596;8.690;2023-08-12T12:36:35;26.40;99.90
14170;DHT22;63889;50.596;8.690;2023-08-12T12:39:02;26.40;99.90
14170;DHT22;63889;50.596;8.690;2023-08-12T12:41:28;26.30;99.90
14170;DHT22;63889;50.596;8.690;2023-08-12T12:43:53;26.20;99.90
14170;DHT22;63889;50.596;8.690;2023-08-12T12:46:19;26.10;99.90
14170;DHT22;63889;50.596;8.690;2023-08-12T12:48:45;26.00;99.90
14170;DHT22;63889;50.596;8.690;2023-08-12T12:51:12;25.80;99.90
14170;DHT22;63889;50.596;8.690;2023-08-12T12:53:38;25.70;99.90
14170;DHT22;63889;50.596;8.690;2023-08-12T12:56:03;25.60;99.90
14170;DHT22;63889;50.596;8.690;2023-08-12T12:58:33;25.50;99.90
14170;DHT22;63889;50.596;8.690;2023-08-12T13:01:02;25.50;99.90
14170;DHT22;63889;50.596;8.690;2023-08-12T13:03:29;25.60;99.90
14170;DHT22;63889;50.596;8.690;2023-08-12T13:05:55;26.30;99.90
14170;DHT22;63889;50.596;8.690;2023-08-12T13:08:21;27.10;99.90
14170;DHT22;63889;50.596;8.690;2023-08-12T13:10:46;27.30;99.90
14170;DHT22;63889;50.596;8.690;2023-08-12T13:13:15;27.30;99.90
14170;DHT22;63889;50.596;8.690;2023-08-12T13:15:42;27.50;99.90
14170;DHT22;63889;50.596;8.690;2023-08-12T13:18:08;27.70;99.90
14170;DHT22;63889;50.596;8.690;2023-08-12T13:20:34;28.10;99.90
14170;DHT22;63889;50.596;8.690;2023-08-12T13:23:00;28.30;99.90
14170;DHT22;63889;50.596;8.690;2023-08-12T13:25:30;28.10;99.90
14170;DHT22;63889;50.596;8.690;2023-08-12T13:27:56;27.90;99.90
14170;DHT22;63889;50.596;8.690;2023-08-12T13:30:22;27.80;99.90
14170;DHT22;63889;50.596;8.690;2023-08-12T13:32:47;27.80;99.90
14170;DHT22;63889;50.596;8.690;2023-08-12T13:35:13;27.80;99.90
14170;DHT22;63889;50.596;8.690;2023-08-12T13:37:38;27.90;99.90
14170;DHT22;63889;50.596;8.690;2023-08-12T13:40:04;28.00;99.90
14170;DHT22;63889;50.596;8.690;2023-08-12T13:42:30;28.10;99.90
14170;DHT22;63889;50.596;8.690;2023-08-12T13:44:56;28.30;99.90
14170;DHT22;63889;50.596;8.690;2023-08-12T13:47:21;28.40;99.90
14170;DHT22;63889;50.596;8.690;2023-08-12T13:49:47;28.40;99.90
14170;DHT22;63889;50.596;8.690;2023-08-12T13:52:12;28.40;99.90
14170;DHT22;63889;50.596;8.690;2023-08-12T13:54:38;28.30;99.90
14170;DHT22;63889;50.596;8.690;2023-08-12T13:57:04;28.40;99.90
14170;DHT22;63889;50.596;8.690;2023-08-12T13:59:30;28.40;99.90
14170;DHT22;63889;50.596;8.690;2023-08-12T14:01:55;28.50;99.90
14170;DHT22;63889;50.596;8.690;2023-08-12T14:04:21;28.60;99.90
14170;DHT22;63889;50.596;8.690;2023-08-12T14:06:46;28.60;99.90
14170;DHT22;63889;50.596;8.690;2023-08-12T14:09:12;28.60;99.90
14170;DHT22;63889;50.596;8.690;2023-08-12T14:11:39;28.70;99.90
14170;DHT22;63889;50.596;8.690;2023-08-12T14:14:05;28.70;99.90
14170;DHT22;63889;50.596;8.690;2023-08-12T14:16:31;28.60;99.90
14170;DHT22;63889;50.596;8.690;2023-08-12T14:18:56;28.60;99.90
14170;DHT22;63889;50.596;8.690;2023-08-12T14:21:22;28.60;99.90
14170;DHT22;63889;50.596;8.690;2023-08-12T14:23:47;28.40;99.90
14170;DHT22;63889;50.596;8.690;2023-08-12T14:26:13;28.10;99.90
14170;DHT22;63889;50.596;8.690;2023-08-12T14:28:38;28.00;99.90
14170;DHT22;63889;50.596;8.690;2023-08-12T14:31:04;28.10;99.90
14170;DHT22;63889;50.596;8.690;2023-08-12T14:33:29;27.90;99.90
14170;DHT22;63889;50.596;8.690;2023-08-12T14:35:58;27.80;99.90
14170;DHT22;63889;50.596;8.690;2023-08-12T14:38:24;27.70;99.90
14170;DHT22;63889;50.596;8.690;2023-08-12T14:40:50;27.70;99.90
14170;DHT22;63889;50.596;8.690;2023-08-12T14:43:15;27.70;99.90
14170;DHT22;63889;50.596;8.690;2023-08-12T14:45:42;27.80;99.90
14170;DHT22;63889;50.596;8.690;2023-08-12T14:48:09;27.80;99.90
14170;DHT22;63889;50.596;8.690;2023-08-12T14:50:37;27.70;99.90
14170;DHT22;63889;50.596;8.690;2023-08-12T14:53:03;27.70;99.90
14170;DHT22;63889;50.596;8.690;2023-08-12T14:55:28;27.70;99.90
14170;DHT22;63889;50.596;8.690;2023-08-12T14:57:54;27.60;99.90
14170;DHT22;63889;50.596;8.690;2023-08-12T15:00:19;27.30;99.90
14170;DHT22;63889;50.596;8.690;2023-08-12T15:02:45;27.30;99.90
14170;DHT22;63889;50.596;8.690;2023-08-12T15:05:11;27.30;99.90
14170;DHT22;63889;50.596;8.690;2023-08-12T15:07:37;27.10;99.90
14170;DHT22;63889;50.596;8.690;2023-08-12T15:10:03;27.00;99.90
14170;DHT22;63889;50.596;8.690;2023-08-12T15:12:29;26.80;99.90
14170;DHT22;63889;50.596;8.690;2023-08-12T15:14:55;26.80;99.90
14170;DHT22;63889;50.596;8.690;2023-08-12T15:17:21;27.00;99.90
14170;DHT22;63889;50.596;8.690;2023-08-12T15:19:46;27.00;99.90
14170;DHT22;63889;50.596;8.690;2023-08-12T15:22:12;26.90;99.90
14170;DHT22;63889;50.596;8.690;2023-08-12T15:24:37;26.80;99.90
14170;DHT22;63889;50.596;8.690;2023-08-12T15:27:03;26.70;99.90
14170;DHT22;63889;50.596;8.690;2023-08-12T15:29:29;26.50;99.90
14170;DHT22;63889;50.596;8.690;2023-08-12T15:31:54;26.70;99.90
14170;DHT22;63889;50.596;8.690;2023-08-12T15:34:21;26.80;99.90